Time,TemperatureF,DewpointF,PressureIn,WindDirection,WindDirectionDegrees,WindSpeedMPH,WindSpeedGustMPH,Humidity,HourlyPrecipIn,Conditions,Clouds,dailyrainin,SolarRadiationWatts/m^2,SoftwareType,DateUTC
2013-05-17 00:02:00,41.0,27.0,-100.00,North,352,2.0,4.0,58,0.00,,,0.01,0.000000,,2013-05-17 06:02:00,
2013-05-17 00:32:00,39.0,27.0,-100.00,NW,321,2.0,5.0,61,0.00,,,0.01,0.000000,,2013-05-17 06:32:00,
2013-05-17 00:42:00,39.0,27.0,-100.00,NW,321,2.0,5.0,61,0.00,,,0.01,0.000000,,2013-05-17 06:42:00,
2013-05-17 00:52:00,39.0,27.0,-100.00,NW,321,2.0,5.0,61,0.00,,,0.01,0.000000,,2013-05-17 06:52:00,
2013-05-17 01:02:00,39.0,27.0,-100.00,NW,321,2.0,5.0,61,0.00,,,0.01,0.000000,,2013-05-17 07:02:00,
2013-05-17 01:32:00,36.0,26.0,-100.00,WNW,303,2.0,5.0,66,0.00,,,0.01,0.000000,,2013-05-17 07:32:00,
2013-05-17 01:43:00,36.0,26.0,-100.00,WNW,303,2.0,5.0,66,0.00,,,0.01,0.000000,,2013-05-17 07:43:00,
2013-05-17 01:53:00,36.0,26.0,-100.00,WNW,303,2.0,5.0,66,0.00,,,0.01,0.000000,,2013-05-17 07:53:00,
2013-05-17 02:02:00,36.0,26.0,-100.00,WNW,303,2.0,5.0,66,0.00,,,0.01,0.000000,,2013-05-17 08:02:00,
2013-05-17 02:34:00,36.0,26.0,-100.00,WNW,301,1.0,6.0,66,0.00,,,0.01,0.000000,,2013-05-17 08:34:00,
2013-05-17 02:43:00,36.0,26.0,-100.00,WNW,301,1.0,6.0,66,0.00,,,0.01,0.000000,,2013-05-17 08:43:00,
2013-05-17 02:52:00,36.0,26.0,-100.00,WNW,301,1.0,6.0,66,0.00,,,0.01,0.000000,,2013-05-17 08:52:00,
2013-05-17 03:02:00,36.0,26.0,-100.00,WNW,301,1.0,6.0,66,0.00,,,0.01,0.000000,,2013-05-17 09:02:00,
2013-05-17 03:33:00,34.0,25.0,-100.00,NW,315,2.0,4.0,70,0.00,,,0.01,0.000000,,2013-05-17 09:33:00,
2013-05-17 03:42:00,34.0,25.0,-100.00,NW,315,2.0,4.0,70,0.00,,,0.01,0.000000,,2013-05-17 09:42:00,
2013-05-17 03:53:00,34.0,25.0,-100.00,NW,315,2.0,4.0,70,0.00,,,0.01,0.000000,,2013-05-17 09:53:00,
2013-05-17 04:03:00,34.0,25.0,-100.00,NW,315,2.0,4.0,70,0.00,,,0.01,0.000000,,2013-05-17 10:03:00,
2013-05-17 04:33:00,34.0,25.0,-100.00,NW,305,3.0,5.0,70,0.00,,,0.01,0.000000,,2013-05-17 10:33:00,
2013-05-17 04:42:00,34.0,25.0,-100.00,NW,305,3.0,5.0,70,0.00,,,0.01,0.000000,,2013-05-17 10:42:00,
2013-05-17 04:54:00,34.0,25.0,-100.00,NW,305,3.0,5.0,70,0.00,,,0.01,0.000000,,2013-05-17 10:54:00,
2013-05-17 05:02:00,34.0,25.0,-100.00,NW,305,3.0,5.0,70,0.00,,,0.01,0.000000,,2013-05-17 11:02:00,
2013-05-17 05:34:00,31.0,24.0,-100.00,WNW,286,1.0,4.0,76,0.00,,,0.01,0.000000,,2013-05-17 11:34:00,
2013-05-17 06:33:00,31.0,24.0,-100.00,WNW,301,3.0,5.0,74,0.00,,,0.01,3.000000,,2013-05-17 12:33:00,
2013-05-17 07:03:00,31.0,24.0,-100.00,WNW,301,3.0,5.0,74,0.00,,,0.01,3.000000,,2013-05-17 13:03:00,
2013-05-17 07:33:00,40.0,27.0,-100.00,NNE,29,0.0,4.0,60,0.00,,,0.00,86.000000,,2013-05-17 13:33:00,
2013-05-17 07:42:00,40.0,27.0,-100.00,NNE,29,0.0,4.0,60,0.00,,,0.00,86.000000,,2013-05-17 13:42:00,
2013-05-17 07:52:00,40.0,27.0,-100.00,NNE,29,0.0,4.0,60,0.00,,,0.00,86.000000,,2013-05-17 13:52:00,
2013-05-17 08:02:00,40.0,27.0,-100.00,NNE,29,0.0,4.0,60,0.00,,,0.00,86.000000,,2013-05-17 14:02:00,
2013-05-17 08:34:00,50.0,27.0,-100.00,East,99,2.0,5.0,41,0.00,,,0.00,372.000000,,2013-05-17 14:34:00,
2013-05-17 08:43:00,50.0,27.0,-100.00,East,99,2.0,5.0,41,0.00,,,0.00,372.000000,,2013-05-17 14:43:00,
2013-05-17 08:53:00,50.0,27.0,-100.00,East,99,2.0,5.0,41,0.00,,,0.00,372.000000,,2013-05-17 14:53:00,
2013-05-17 09:03:00,50.0,27.0,-100.00,East,99,2.0,5.0,41,0.00,,,0.00,372.000000,,2013-05-17 15:03:00,
2013-05-17 09:37:00,56.0,22.0,-100.00,East,90,4.0,6.0,26,0.00,,,0.00,618.000000,,2013-05-17 15:37:00,
2013-05-17 09:47:00,56.0,22.0,-100.00,East,90,4.0,6.0,26,0.00,,,0.00,618.000000,,2013-05-17 15:47:00,
2013-05-17 09:57:00,56.0,22.0,-100.00,East,90,4.0,6.0,26,0.00,,,0.00,618.000000,,2013-05-17 15:57:00,
2013-05-17 10:07:00,56.0,22.0,-100.00,East,90,4.0,6.0,26,0.00,,,0.00,618.000000,,2013-05-17 16:07:00,
2013-05-17 10:08:00,59.0,17.0,-100.00,SE,124,4.0,10.0,19,0.00,,,0.00,836.000000,,2013-05-17 16:08:00,
2013-05-17 10:37:00,59.0,17.0,-100.00,SE,124,4.0,10.0,19,0.00,,,0.00,836.000000,,2013-05-17 16:37:00,
2013-05-17 10:50:00,59.0,17.0,-100.00,SE,124,4.0,10.0,19,0.00,,,0.00,836.000000,,2013-05-17 16:50:00,
2013-05-17 10:56:00,59.0,17.0,-100.00,SE,124,4.0,10.0,19,0.00,,,0.00,836.000000,,2013-05-17 16:56:00,
2013-05-17 11:08:00,59.0,11.0,-100.00,South,174,9.0,20.0,15,0.00,,,0.00,1020.000000,,2013-05-17 17:08:00,
2013-05-17 11:40:00,59.0,-99.9,-100.00,South,174,9.0,20.0,15,0.00,,,0.00,1020.000000,,2013-05-17 17:40:00,
2013-05-17 11:49:00,59.0,11.0,-100.00,South,174,9.0,20.0,15,0.00,,,0.00,1020.000000,,2013-05-17 17:49:00,
2013-05-17 12:00:00,59.0,11.0,-100.00,South,174,9.0,20.0,15,0.00,,,0.00,1020.000000,,2013-05-17 18:00:00,
2013-05-17 12:08:00,61.0,10.0,-100.00,South,190,11.0,22.0,13,0.00,,,0.00,1140.000000,,2013-05-17 18:08:00,
2013-05-17 12:40:00,61.0,-99.9,-100.00,South,190,11.0,22.0,13,0.00,,,0.00,1140.000000,,2013-05-17 18:40:00,
2013-05-17 12:50:00,-999.0,-99.9,-100.00,South,190,11.0,22.0,13,0.00,,,0.00,1140.000000,,2013-05-17 18:50:00,
2013-05-17 13:00:00,61.0,-99.9,-100.00,South,190,11.0,22.0,13,0.00,,,0.00,1140.000000,,2013-05-17 19:00:00,
2013-05-17 13:08:00,62.0,5.0,-100.00,South,189,12.0,22.0,10,0.00,,,-99.99,1200.000000,,2013-05-17 19:08:00,
2013-05-17 13:40:00,62.0,5.0,-100.00,South,189,12.0,22.0,10,0.00,,,-99.99,1200.000000,,2013-05-17 19:40:00,
2013-05-17 13:51:00,62.0,5.0,-100.00,South,189,12.0,22.0,10,0.00,,,-99.99,1200.000000,,2013-05-17 19:51:00,
2013-05-17 14:01:00,-999.0,-99.9,-100.00,South,189,12.0,22.0,10,0.00,,,-99.99,1200.000000,,2013-05-17 20:01:00,
2013-05-17 14:40:00,63.0,1.0,-100.00,SW,227,11.0,24.0,8,0.00,,,0.00,1197.000000,,2013-05-17 20:40:00,
2013-05-17 14:50:00,63.0,1.0,-100.00,SW,227,11.0,24.0,8,0.00,,,0.00,1197.000000,,2013-05-17 20:50:00,
2013-05-17 14:58:00,63.0,1.0,-100.00,SW,227,11.0,24.0,8,0.00,,,0.00,1197.000000,,2013-05-17 20:58:00,
2013-05-17 15:07:00,63.0,1.0,-100.00,SW,227,11.0,24.0,8,0.00,,,0.00,1197.000000,,2013-05-17 21:07:00,
2013-05-17 15:39:00,65.0,5.0,-100.00,SW,222,7.0,22.0,9,0.00,,,0.00,1143.000000,,2013-05-17 21:39:00,
2013-05-17 15:49:00,65.0,5.0,-100.00,SW,222,7.0,22.0,9,0.00,,,0.00,1143.000000,,2013-05-17 21:49:00,
2013-05-17 15:58:00,65.0,5.0,-100.00,SW,222,7.0,22.0,9,0.00,,,0.00,1143.000000,,2013-05-17 21:58:00,
2013-05-17 16:07:00,65.0,5.0,-100.00,SW,222,7.0,22.0,9,0.00,,,0.00,1143.000000,,2013-05-17 22:07:00,
2013-05-17 16:38:00,64.0,6.0,-100.00,SW,231,8.0,23.0,10,0.00,,,0.00,1051.000000,,2013-05-17 22:38:00,
2013-05-17 16:47:00,64.0,6.0,-100.00,SW,231,8.0,23.0,10,0.00,,,0.00,1051.000000,,2013-05-17 22:47:00,
2013-05-17 16:55:00,64.0,6.0,-100.00,SW,231,8.0,23.0,10,0.00,,,0.00,1051.000000,,2013-05-17 22:55:00,
2013-05-17 17:04:00,64.0,6.0,-100.00,SW,231,8.0,23.0,10,0.00,,,0.00,1051.000000,,2013-05-17 23:04:00,
2013-05-17 17:38:00,65.0,5.0,-100.00,South,189,10.0,21.0,9,0.00,,,0.00,665.000000,,2013-05-17 23:38:00,
2013-05-17 17:47:00,65.0,5.0,-100.00,South,189,10.0,21.0,9,0.00,,,0.00,665.000000,,2013-05-17 23:47:00,
2013-05-17 17:54:00,65.0,5.0,-100.00,South,189,10.0,21.0,9,0.00,,,0.00,665.000000,,2013-05-17 23:54:00,
2013-05-17 18:02:00,65.0,5.0,-100.00,South,189,10.0,21.0,9,0.00,,,0.00,665.000000,,2013-05-18 00:02:00,
2013-05-17 18:34:00,62.0,0.0,-100.00,SW,231,8.0,18.0,8,0.00,,,0.00,460.000000,,2013-05-18 00:34:00,
2013-05-17 18:45:00,62.0,0.0,-100.00,SW,231,8.0,18.0,8,0.00,,,0.00,460.000000,,2013-05-18 00:45:00,
2013-05-17 18:54:00,62.0,0.0,-100.00,SW,231,8.0,18.0,8,0.00,,,0.00,460.000000,,2013-05-18 00:54:00,
2013-05-17 19:02:00,62.0,0.0,-100.00,SW,231,8.0,18.0,8,0.00,,,0.00,460.000000,,2013-05-18 01:02:00,
2013-05-17 19:32:00,59.0,6.0,-100.00,WSW,249,4.0,15.0,12,0.00,,,0.00,207.000000,,2013-05-18 01:32:00,
2013-05-17 19:43:00,59.0,6.0,-100.00,WSW,249,4.0,15.0,12,0.00,,,0.00,207.000000,,2013-05-18 01:43:00,
2013-05-17 19:52:00,59.0,6.0,-100.00,WSW,249,4.0,15.0,12,0.00,,,0.00,207.000000,,2013-05-18 01:52:00,
2013-05-17 20:02:00,59.0,6.0,-100.00,WSW,249,4.0,15.0,12,0.00,,,0.00,207.000000,,2013-05-18 02:02:00,
2013-05-17 20:32:00,52.0,15.0,-100.00,WNW,303,3.0,7.0,23,0.00,,,0.00,34.000000,,2013-05-18 02:32:00,
2013-05-17 20:43:00,52.0,15.0,-100.00,WNW,303,3.0,7.0,23,0.00,,,0.00,34.000000,,2013-05-18 02:43:00,
2013-05-17 20:54:00,52.0,15.0,-100.00,WNW,303,3.0,7.0,23,0.00,,,0.00,34.000000,,2013-05-18 02:54:00,
2013-05-17 21:02:00,52.0,15.0,-100.00,WNW,303,3.0,7.0,23,0.00,,,0.00,34.000000,,2013-05-18 03:02:00,
2013-05-17 21:33:00,48.0,16.0,-100.00,North,356,2.0,6.0,28,0.00,,,0.00,1.000000,,2013-05-18 03:33:00,
2013-05-17 21:43:00,48.0,16.0,-100.00,North,356,2.0,6.0,28,0.00,,,0.00,1.000000,,2013-05-18 03:43:00,
2013-05-17 21:53:00,48.0,16.0,-100.00,North,356,2.0,6.0,28,0.00,,,0.00,1.000000,,2013-05-18 03:53:00,
2013-05-17 22:02:00,48.0,16.0,-100.00,North,356,2.0,6.0,28,0.00,,,0.00,1.000000,,2013-05-18 04:02:00,
2013-05-17 22:33:00,44.0,17.0,-100.00,WSW,252,1.0,5.0,33,0.00,,,0.00,0.000000,,2013-05-18 04:33:00,
2013-05-17 22:43:00,44.0,17.0,-100.00,WSW,252,1.0,5.0,33,0.00,,,0.00,0.000000,,2013-05-18 04:43:00,
2013-05-17 22:52:00,44.0,17.0,-100.00,WSW,252,1.0,5.0,33,0.00,,,0.00,0.000000,,2013-05-18 04:52:00,
2013-05-17 23:02:00,44.0,17.0,-100.00,WSW,252,1.0,5.0,33,0.00,,,0.00,0.000000,,2013-05-18 05:02:00,
2013-05-17 23:32:00,40.0,19.0,-100.00,NW,320,3.0,4.0,42,0.00,,,0.00,0.000000,,2013-05-18 05:32:00,
2013-05-17 23:42:00,40.0,19.0,-100.00,NW,320,3.0,4.0,42,0.00,,,0.00,0.000000,,2013-05-18 05:42:00,
2013-05-17 23:52:00,40.0,19.0,-100.00,NW,320,3.0,4.0,42,0.00,,,0.00,0.000000,,2013-05-18 05:52:00,